sensor_id;sensor_type;location;lat;lon;timestamp;P1;durP1;ratioP1;P2;durP2;ratioP2
22549;SDS011;11441;57.164;-2.120;2022-08-06T00:02:37;11.25;;;6.72;;
22549;SDS011;11441;57.164;-2.120;2022-08-06T00:05:07;9.23;;;7.50;;
22549;SDS011;11441;57.164;-2.120;2022-08-06T00:07:43;7.82;;;6.07;;
22549;SDS011;11441;57.164;-2.120;2022-08-06T00:10:16;9.98;;;7.20;;
22549;SDS011;11441;57.164;-2.120;2022-08-06T00:12:55;8.43;;;7.43;;
22549;SDS011;11441;57.164;-2.120;2022-08-06T00:15:25;9.10;;;7.05;;
22549;SDS011;11441;57.164;-2.120;2022-08-06T00:18:12;7.45;;;6.75;;
22549;SDS011;11441;57.164;-2.120;2022-08-06T00:20:39;12.43;;;5.97;;
22549;SDS011;11441;57.164;-2.120;2022-08-06T00:23:08;9.75;;;6.75;;
22549;SDS011;11441;57.164;-2.120;2022-08-06T00:25:43;11.32;;;7.18;;
22549;SDS011;11441;57.164;-2.120;2022-08-06T00:28:19;11.73;;;7.25;;
22549;SDS011;11441;57.164;-2.120;2022-08-06T00:30:56;9.85;;;8.10;;
22549;SDS011;11441;57.164;-2.120;2022-08-06T00:33:26;10.55;;;7.18;;
22549;SDS011;11441;57.164;-2.120;2022-08-06T00:36:10;9.05;;;7.55;;
22549;SDS011;11441;57.164;-2.120;2022-08-06T00:38:37;9.93;;;6.82;;
22549;SDS011;11441;57.164;-2.120;2022-08-06T00:41:04;9.13;;;7.60;;
22549;SDS011;11441;57.164;-2.120;2022-08-06T00:43:33;8.40;;;7.43;;
22549;SDS011;11441;57.164;-2.120;2022-08-06T00:46:06;8.35;;;6.90;;
22549;SDS011;11441;57.164;-2.120;2022-08-06T00:48:42;10.70;;;8.20;;
22549;SDS011;11441;57.164;-2.120;2022-08-06T00:51:38;10.02;;;7.65;;
22549;SDS011;11441;57.164;-2.120;2022-08-06T00:54:17;12.18;;;7.70;;
22549;SDS011;11441;57.164;-2.120;2022-08-06T00:57:04;12.15;;;6.78;;
22549;SDS011;11441;57.164;-2.120;2022-08-06T00:59:35;11.18;;;8.27;;
22549;SDS011;11441;57.164;-2.120;2022-08-06T01:02:21;8.30;;;7.47;;
22549;SDS011;11441;57.164;-2.120;2022-08-06T01:04:51;9.50;;;8.38;;
22549;SDS011;11441;57.164;-2.120;2022-08-06T01:07:32;8.75;;;7.00;;
22549;SDS011;11441;57.164;-2.120;2022-08-06T01:10:18;9.38;;;8.30;;
22549;SDS011;11441;57.164;-2.120;2022-08-06T01:12:56;8.60;;;7.80;;
22549;SDS011;11441;57.164;-2.120;2022-08-06T01:15:23;10.20;;;8.55;;
22549;SDS011;11441;57.164;-2.120;2022-08-06T01:18:10;9.40;;;8.45;;
22549;SDS011;11441;57.164;-2.120;2022-08-06T01:29:08;11.73;;;8.45;;
22549;SDS011;11441;57.164;-2.120;2022-08-06T01:32:05;11.68;;;9.57;;
22549;SDS011;11441;57.164;-2.120;2022-08-06T01:38:46;14.10;;;8.98;;
22549;SDS011;11441;57.164;-2.120;2022-08-06T01:40:53;10.77;;;9.35;;
22549;SDS011;11441;57.164;-2.120;2022-08-06T01:43:22;12.43;;;10.48;;
22549;SDS011;11441;57.164;-2.120;2022-08-06T01:46:11;11.10;;;9.95;;
22549;SDS011;11441;57.164;-2.120;2022-08-06T01:48:42;12.32;;;9.45;;
22549;SDS011;11441;57.164;-2.120;2022-08-06T01:51:11;14.80;;;10.15;;
22549;SDS011;11441;57.164;-2.120;2022-08-06T01:53:59;10.25;;;9.20;;
22549;SDS011;11441;57.164;-2.120;2022-08-06T01:56:34;11.27;;;10.07;;
22549;SDS011;11441;57.164;-2.120;2022-08-06T01:59:31;10.20;;;8.77;;
22549;SDS011;11441;57.164;-2.120;2022-08-06T02:04:57;11.88;;;9.70;;
22549;SDS011;11441;57.164;-2.120;2022-08-06T02:07:35;13.52;;;9.82;;
22549;SDS011;11441;57.164;-2.120;2022-08-06T02:10:26;13.45;;;10.07;;
22549;SDS011;11441;57.164;-2.120;2022-08-06T02:12:57;14.45;;;10.40;;
22549;SDS011;11441;57.164;-2.120;2022-08-06T02:15:29;11.63;;;10.35;;
22549;SDS011;11441;57.164;-2.120;2022-08-06T02:18:19;12.20;;;10.27;;
22549;SDS011;11441;57.164;-2.120;2022-08-06T02:21:03;15.73;;;11.00;;
22549;SDS011;11441;57.164;-2.120;2022-08-06T02:23:55;12.32;;;10.80;;
22549;SDS011;11441;57.164;-2.120;2022-08-06T02:26:24;12.30;;;10.75;;
22549;SDS011;11441;57.164;-2.120;2022-08-06T02:31:44;16.67;;;10.43;;
22549;SDS011;11441;57.164;-2.120;2022-08-06T02:34:18;14.98;;;10.57;;
22549;SDS011;11441;57.164;-2.120;2022-08-06T02:36:57;12.43;;;11.02;;
22549;SDS011;11441;57.164;-2.120;2022-08-06T02:39:37;12.40;;;11.07;;
22549;SDS011;11441;57.164;-2.120;2022-08-06T02:45:25;12.32;;;11.05;;
22549;SDS011;11441;57.164;-2.120;2022-08-06T02:48:15;16.08;;;11.35;;
22549;SDS011;11441;57.164;-2.120;2022-08-06T02:50:57;10.95;;;9.68;;
22549;SDS011;11441;57.164;-2.120;2022-08-06T02:53:44;11.45;;;10.25;;
22549;SDS011;11441;57.164;-2.120;2022-08-06T02:56:30;14.40;;;11.10;;
22549;SDS011;11441;57.164;-2.120;2022-08-06T02:59:15;13.20;;;10.75;;
22549;SDS011;11441;57.164;-2.120;2022-08-06T03:01:52;12.45;;;10.88;;
22549;SDS011;11441;57.164;-2.120;2022-08-06T03:04:23;14.68;;;11.05;;
22549;SDS011;11441;57.164;-2.120;2022-08-06T03:09:55;10.90;;;9.90;;
22549;SDS011;11441;57.164;-2.120;2022-08-06T03:12:24;12.25;;;11.05;;
22549;SDS011;11441;57.164;-2.120;2022-08-06T03:14:57;10.60;;;9.57;;
22549;SDS011;11441;57.164;-2.120;2022-08-06T03:17:37;10.18;;;9.18;;
22549;SDS011;11441;57.164;-2.120;2022-08-06T03:20:06;12.68;;;9.60;;
22549;SDS011;11441;57.164;-2.120;2022-08-06T03:22:42;11.38;;;9.60;;
22549;SDS011;11441;57.164;-2.120;2022-08-06T03:25:13;13.80;;;9.95;;
22549;SDS011;11441;57.164;-2.120;2022-08-06T03:27:41;10.40;;;9.40;;
22549;SDS011;11441;57.164;-2.120;2022-08-06T03:30:11;10.15;;;8.52;;
22549;SDS011;11441;57.164;-2.120;2022-08-06T03:33:08;10.13;;;9.10;;
22549;SDS011;11441;57.164;-2.120;2022-08-06T03:35:59;8.65;;;7.82;;
22549;SDS011;11441;57.164;-2.120;2022-08-06T03:38:28;11.50;;;9.27;;
22549;SDS011;11441;57.164;-2.120;2022-08-06T03:41:02;9.70;;;8.70;;
22549;SDS011;11441;57.164;-2.120;2022-08-06T03:43:33;10.38;;;8.88;;
22549;SDS011;11441;57.164;-2.120;2022-08-06T03:46:29;9.98;;;8.65;;
22549;SDS011;11441;57.164;-2.120;2022-08-06T03:49:02;13.20;;;9.10;;
22549;SDS011;11441;57.164;-2.120;2022-08-06T03:51:32;10.40;;;9.32;;
22549;SDS011;11441;57.164;-2.120;2022-08-06T03:54:21;11.88;;;9.90;;
22549;SDS011;11441;57.164;-2.120;2022-08-06T03:57:01;10.63;;;9.43;;
22549;SDS011;11441;57.164;-2.120;2022-08-06T03:59:36;12.52;;;9.55;;
22549;SDS011;11441;57.164;-2.120;2022-08-06T04:02:23;11.95;;;9.85;;
22549;SDS011;11441;57.164;-2.120;2022-08-06T04:05:13;15.90;;;10.63;;
22549;SDS011;11441;57.164;-2.120;2022-08-06T04:07:49;12.02;;;10.23;;
22549;SDS011;11441;57.164;-2.120;2022-08-06T04:10:23;13.73;;;9.82;;
22549;SDS011;11441;57.164;-2.120;2022-08-06T04:13:12;12.93;;;10.50;;
22549;SDS011;11441;57.164;-2.120;2022-08-06T04:16:01;11.80;;;10.70;;
22549;SDS011;11441;57.164;-2.120;2022-08-06T04:18:32;16.08;;;11.27;;
22549;SDS011;11441;57.164;-2.120;2022-08-06T04:21:18;11.73;;;10.05;;
22549;SDS011;11441;57.164;-2.120;2022-08-06T04:24:25;10.40;;;9.38;;
22549;SDS011;11441;57.164;-2.120;2022-08-06T04:26:58;10.25;;;9.25;;
22549;SDS011;11441;57.164;-2.120;2022-08-06T04:29:35;12.27;;;11.07;;
22549;SDS011;11441;57.164;-2.120;2022-08-06T04:32:24;12.68;;;10.20;;
22549;SDS011;11441;57.164;-2.120;2022-08-06T04:34:57;11.90;;;10.75;;
22549;SDS011;11441;57.164;-2.120;2022-08-06T04:37:48;12.98;;;10.68;;
22549;SDS011;11441;57.164;-2.120;2022-08-06T04:40:19;11.38;;;10.25;;
22549;SDS011;11441;57.164;-2.120;2022-08-06T04:43:01;11.50;;;10.25;;
22549;SDS011;11441;57.164;-2.120;2022-08-06T04:45:31;11.25;;;10.20;;
22549;SDS011;11441;57.164;-2.120;2022-08-06T04:48:18;13.40;;;11.27;;
22549;SDS011;11441;57.164;-2.120;2022-08-06T04:50:47;12.48;;;10.18;;
22549;SDS011;11441;57.164;-2.120;2022-08-06T04:53:39;13.52;;;10.45;;
22549;SDS011;11441;57.164;-2.120;2022-08-06T04:56:23;16.08;;;10.65;;
22549;SDS011;11441;57.164;-2.120;2022-08-06T04:58:55;11.40;;;10.23;;
22549;SDS011;11441;57.164;-2.120;2022-08-06T05:01:23;12.63;;;10.50;;
22549;SDS011;11441;57.164;-2.120;2022-08-06T05:03:52;12.60;;;10.82;;
22549;SDS011;11441;57.164;-2.120;2022-08-06T05:06:40;12.15;;;10.65;;
22549;SDS011;11441;57.164;-2.120;2022-08-06T05:09:15;12.57;;;10.77;;
22549;SDS011;11441;57.164;-2.120;2022-08-06T05:12:13;13.02;;;10.32;;
22549;SDS011;11441;57.164;-2.120;2022-08-06T05:14:55;11.38;;;10.25;;
22549;SDS011;11441;57.164;-2.120;2022-08-06T05:17:38;18.75;;;11.27;;
22549;SDS011;11441;57.164;-2.120;2022-08-06T05:20:15;11.13;;;9.98;;
22549;SDS011;11441;57.164;-2.120;2022-08-06T05:22:55;10.65;;;9.65;;
22549;SDS011;11441;57.164;-2.120;2022-08-06T05:25:30;12.80;;;9.20;;
22549;SDS011;11441;57.164;-2.120;2022-08-06T05:28:02;10.63;;;9.32;;
22549;SDS011;11441;57.164;-2.120;2022-08-06T05:30:44;13.70;;;9.27;;
22549;SDS011;11441;57.164;-2.120;2022-08-06T05:33:32;10.70;;;8.63;;
22549;SDS011;11441;57.164;-2.120;2022-08-06T05:36:08;8.80;;;7.90;;
22549;SDS011;11441;57.164;-2.120;2022-08-06T05:38:44;8.68;;;7.55;;
22549;SDS011;11441;57.164;-2.120;2022-08-06T05:41:25;7.90;;;7.15;;
22549;SDS011;11441;57.164;-2.120;2022-08-06T05:43:55;7.05;;;6.22;;
22549;SDS011;11441;57.164;-2.120;2022-08-06T05:46:50;8.07;;;6.97;;
22549;SDS011;11441;57.164;-2.120;2022-08-06T05:49:42;8.02;;;6.25;;
22549;SDS011;11441;57.164;-2.120;2022-08-06T05:52:26;5.70;;;5.20;;
22549;SDS011;11441;57.164;-2.120;2022-08-06T05:58:03;6.68;;;6.07;;
22549;SDS011;11441;57.164;-2.120;2022-08-06T06:00:36;10.40;;;6.75;;
22549;SDS011;11441;57.164;-2.120;2022-08-06T06:03:13;6.53;;;5.93;;
22549;SDS011;11441;57.164;-2.120;2022-08-06T06:05:51;8.57;;;5.53;;
22549;SDS011;11441;57.164;-2.120;2022-08-06T06:08:40;6.03;;;5.28;;
22549;SDS011;11441;57.164;-2.120;2022-08-06T06:11:27;5.63;;;5.10;;
22549;SDS011;11441;57.164;-2.120;2022-08-06T06:18:07;8.35;;;4.72;;
22549;SDS011;11441;57.164;-2.120;2022-08-06T06:23:45;5.60;;;4.82;;
22549;SDS011;11441;57.164;-2.120;2022-08-06T06:32:16;6.78;;;4.65;;
22549;SDS011;11441;57.164;-2.120;2022-08-06T06:35:02;5.03;;;4.50;;
22549;SDS011;11441;57.164;-2.120;2022-08-06T06:43:52;4.60;;;4.00;;
22549;SDS011;11441;57.164;-2.120;2022-08-06T06:46:25;6.13;;;4.18;;
22549;SDS011;11441;57.164;-2.120;2022-08-06T06:52:17;8.57;;;4.05;;
22549;SDS011;11441;57.164;-2.120;2022-08-06T06:55:40;6.05;;;4.20;;
22549;SDS011;11441;57.164;-2.120;2022-08-06T06:58:37;7.95;;;4.30;;
22549;SDS011;11441;57.164;-2.120;2022-08-06T07:01:13;4.28;;;3.88;;
22549;SDS011;11441;57.164;-2.120;2022-08-06T07:03:55;4.82;;;3.50;;
22549;SDS011;11441;57.164;-2.120;2022-08-06T07:06:23;6.25;;;3.95;;
22549;SDS011;11441;57.164;-2.120;2022-08-06T07:08:57;7.60;;;3.83;;
22549;SDS011;11441;57.164;-2.120;2022-08-06T07:11:43;5.53;;;3.75;;
22549;SDS011;11441;57.164;-2.120;2022-08-06T07:14:27;3.63;;;3.25;;
22549;SDS011;11441;57.164;-2.120;2022-08-06T07:16:59;5.18;;;4.28;;
22549;SDS011;11441;57.164;-2.120;2022-08-06T07:19:48;4.22;;;3.72;;
22549;SDS011;11441;57.164;-2.120;2022-08-06T07:22:20;4.60;;;3.75;;
22549;SDS011;11441;57.164;-2.120;2022-08-06T07:24:59;4.28;;;3.88;;
22549;SDS011;11441;57.164;-2.120;2022-08-06T07:27:40;4.55;;;4.00;;
22549;SDS011;11441;57.164;-2.120;2022-08-06T07:30:21;7.82;;;3.58;;
22549;SDS011;11441;57.164;-2.120;2022-08-06T07:32:54;5.95;;;3.80;;
22549;SDS011;11441;57.164;-2.120;2022-08-06T07:35:23;4.72;;;3.70;;
22549;SDS011;11441;57.164;-2.120;2022-08-06T07:37:59;5.00;;;3.67;;
22549;SDS011;11441;57.164;-2.120;2022-08-06T07:40:30;4.88;;;3.40;;
22549;SDS011;11441;57.164;-2.120;2022-08-06T07:43:00;3.70;;;3.38;;
22549;SDS011;11441;57.164;-2.120;2022-08-06T07:45:50;5.60;;;3.13;;
22549;SDS011;11441;57.164;-2.120;2022-08-06T07:48:27;4.47;;;3.40;;
22549;SDS011;11441;57.164;-2.120;2022-08-06T07:50:59;4.03;;;3.10;;
22549;SDS011;11441;57.164;-2.120;2022-08-06T07:53:30;2.97;;;2.78;;
22549;SDS011;11441;57.164;-2.120;2022-08-06T07:56:19;4.30;;;2.50;;
22549;SDS011;11441;57.164;-2.120;2022-08-06T07:59:04;5.95;;;2.90;;
22549;SDS011;11441;57.164;-2.120;2022-08-06T08:01:40;3.95;;;3.20;;
22549;SDS011;11441;57.164;-2.120;2022-08-06T08:04:15;4.80;;;3.33;;
22549;SDS011;11441;57.164;-2.120;2022-08-06T08:07:18;3.10;;;2.65;;
22549;SDS011;11441;57.164;-2.120;2022-08-06T08:09:46;3.75;;;2.92;;
22549;SDS011;11441;57.164;-2.120;2022-08-06T08:12:28;3.90;;;3.10;;
22549;SDS011;11441;57.164;-2.120;2022-08-06T08:15:07;5.13;;;3.38;;
22549;SDS011;11441;57.164;-2.120;2022-08-06T08:17:44;4.38;;;3.42;;
22549;SDS011;11441;57.164;-2.120;2022-08-06T08:20:28;4.93;;;3.47;;
22549;SDS011;11441;57.164;-2.120;2022-08-06T08:23:05;5.47;;;3.67;;
22549;SDS011;11441;57.164;-2.120;2022-08-06T08:25:50;3.75;;;3.13;;
22549;SDS011;11441;57.164;-2.120;2022-08-06T08:28:17;3.00;;;2.80;;
22549;SDS011;11441;57.164;-2.120;2022-08-06T08:31:06;3.25;;;2.60;;
22549;SDS011;11441;57.164;-2.120;2022-08-06T08:33:46;3.78;;;1.95;;
22549;SDS011;11441;57.164;-2.120;2022-08-06T08:36:13;3.90;;;2.17;;
22549;SDS011;11441;57.164;-2.120;2022-08-06T08:38:42;4.57;;;2.40;;
22549;SDS011;11441;57.164;-2.120;2022-08-06T08:41:11;5.38;;;2.80;;
22549;SDS011;11441;57.164;-2.120;2022-08-06T08:43:50;4.30;;;2.35;;
22549;SDS011;11441;57.164;-2.120;2022-08-06T08:46:26;4.05;;;2.53;;
22549;SDS011;11441;57.164;-2.120;2022-08-06T08:49:03;2.75;;;1.80;;
22549;SDS011;11441;57.164;-2.120;2022-08-06T08:51:33;3.60;;;2.70;;
22549;SDS011;11441;57.164;-2.120;2022-08-06T08:54:09;3.17;;;2.60;;
22549;SDS011;11441;57.164;-2.120;2022-08-06T08:56:44;2.22;;;2.03;;
22549;SDS011;11441;57.164;-2.120;2022-08-06T08:59:32;3.53;;;2.08;;
22549;SDS011;11441;57.164;-2.120;2022-08-06T09:02:19;2.85;;;2.55;;
22549;SDS011;11441;57.164;-2.120;2022-08-06T09:04:50;5.13;;;2.70;;
22549;SDS011;11441;57.164;-2.120;2022-08-06T09:07:19;3.67;;;2.20;;
22549;SDS011;11441;57.164;-2.120;2022-08-06T09:10:20;3.40;;;2.15;;
22549;SDS011;11441;57.164;-2.120;2022-08-06T09:12:52;5.63;;;2.30;;
22549;SDS011;11441;57.164;-2.120;2022-08-06T09:15:21;5.53;;;2.40;;
22549;SDS011;11441;57.164;-2.120;2022-08-06T09:17:51;2.63;;;2.03;;
22549;SDS011;11441;57.164;-2.120;2022-08-06T09:20:37;1.63;;;1.52;;
22549;SDS011;11441;57.164;-2.120;2022-08-06T09:23:11;3.88;;;1.98;;
22549;SDS011;11441;57.164;-2.120;2022-08-06T09:26:15;1.90;;;1.38;;
22549;SDS011;11441;57.164;-2.120;2022-08-06T09:29:02;2.85;;;1.52;;
22549;SDS011;11441;57.164;-2.120;2022-08-06T09:31:57;3.22;;;2.00;;
22549;SDS011;11441;57.164;-2.120;2022-08-06T09:34:38;4.20;;;1.60;;
22549;SDS011;11441;57.164;-2.120;2022-08-06T09:37:12;4.72;;;2.00;;
22549;SDS011;11441;57.164;-2.120;2022-08-06T09:39:43;2.53;;;1.83;;
22549;SDS011;11441;57.164;-2.120;2022-08-06T09:42:38;5.13;;;1.42;;
22549;SDS011;11441;57.164;-2.120;2022-08-06T09:45:10;2.67;;;2.35;;
22549;SDS011;11441;57.164;-2.120;2022-08-06T09:47:43;2.30;;;1.88;;
22549;SDS011;11441;57.164;-2.120;2022-08-06T09:53:09;2.60;;;2.40;;
22549;SDS011;11441;57.164;-2.120;2022-08-06T09:55:46;3.15;;;2.85;;
22549;SDS011;11441;57.164;-2.120;2022-08-06T09:58:25;5.72;;;4.22;;
22549;SDS011;11441;57.164;-2.120;2022-08-06T10:01:18;7.72;;;4.38;;
22549;SDS011;11441;57.164;-2.120;2022-08-06T10:03:49;4.45;;;3.05;;
22549;SDS011;11441;57.164;-2.120;2022-08-06T10:06:30;4.80;;;3.20;;
22549;SDS011;11441;57.164;-2.120;2022-08-06T10:09:05;4.25;;;2.60;;
22549;SDS011;11441;57.164;-2.120;2022-08-06T10:11:54;4.93;;;3.42;;
22549;SDS011;11441;57.164;-2.120;2022-08-06T10:14:30;4.63;;;2.33;;
22549;SDS011;11441;57.164;-2.120;2022-08-06T10:17:18;2.65;;;1.67;;
22549;SDS011;11441;57.164;-2.120;2022-08-06T10:19:48;2.40;;;2.20;;
22549;SDS011;11441;57.164;-2.120;2022-08-06T10:22:36;2.05;;;1.75;;
22549;SDS011;11441;57.164;-2.120;2022-08-06T10:25:15;1.73;;;1.63;;
22549;SDS011;11441;57.164;-2.120;2022-08-06T10:27:56;1.42;;;1.33;;
22549;SDS011;11441;57.164;-2.120;2022-08-06T10:30:26;1.90;;;1.40;;
22549;SDS011;11441;57.164;-2.120;2022-08-06T10:33:02;2.70;;;1.50;;
22549;SDS011;11441;57.164;-2.120;2022-08-06T10:36:08;3.70;;;1.10;;
22549;SDS011;11441;57.164;-2.120;2022-08-06T10:38:48;1.75;;;1.20;;
22549;SDS011;11441;57.164;-2.120;2022-08-06T10:41:37;2.58;;;1.42;;
22549;SDS011;11441;57.164;-2.120;2022-08-06T10:44:27;2.33;;;1.58;;
22549;SDS011;11441;57.164;-2.120;2022-08-06T10:47:04;3.72;;;1.42;;
22549;SDS011;11441;57.164;-2.120;2022-08-06T10:49:32;2.25;;;2.15;;
22549;SDS011;11441;57.164;-2.120;2022-08-06T10:52:20;1.73;;;1.15;;
22549;SDS011;11441;57.164;-2.120;2022-08-06T10:54:50;1.02;;;1.02;;
22549;SDS011;11441;57.164;-2.120;2022-08-06T10:57:18;2.15;;;1.25;;
22549;SDS011;11441;57.164;-2.120;2022-08-06T11:00:02;2.88;;;1.00;;
22549;SDS011;11441;57.164;-2.120;2022-08-06T11:05:26;1.13;;;1.02;;
22549;SDS011;11441;57.164;-2.120;2022-08-06T11:11:28;2.83;;;1.40;;
22549;SDS011;11441;57.164;-2.120;2022-08-06T11:14:11;2.70;;;1.17;;
22549;SDS011;11441;57.164;-2.120;2022-08-06T11:16:57;1.60;;;1.50;;
22549;SDS011;11441;57.164;-2.120;2022-08-06T11:19:38;1.15;;;1.08;;
22549;SDS011;11441;57.164;-2.120;2022-08-06T11:22:38;1.10;;;0.90;;
22549;SDS011;11441;57.164;-2.120;2022-08-06T11:25:21;1.50;;;1.10;;
22549;SDS011;11441;57.164;-2.120;2022-08-06T11:30:56;1.20;;;0.80;;
22549;SDS011;11441;57.164;-2.120;2022-08-06T11:36:26;0.85;;;0.77;;
22549;SDS011;11441;57.164;-2.120;2022-08-06T11:41:28;3.10;;;0.82;;
22549;SDS011;11441;57.164;-2.120;2022-08-06T11:44:19;0.57;;;0.50;;
22549;SDS011;11441;57.164;-2.120;2022-08-06T11:49:56;0.70;;;0.70;;
22549;SDS011;11441;57.164;-2.120;2022-08-06T11:55:07;0.60;;;0.60;;
22549;SDS011;11441;57.164;-2.120;2022-08-06T11:57:47;0.60;;;0.60;;
22549;SDS011;11441;57.164;-2.120;2022-08-06T12:00:17;1.13;;;0.65;;
22549;SDS011;11441;57.164;-2.120;2022-08-06T12:02:50;1.40;;;0.70;;
22549;SDS011;11441;57.164;-2.120;2022-08-06T12:08:10;1.77;;;0.50;;
22549;SDS011;11441;57.164;-2.120;2022-08-06T12:11:27;0.70;;;0.50;;
22549;SDS011;11441;57.164;-2.120;2022-08-06T12:17:19;1.02;;;0.60;;
22549;SDS011;11441;57.164;-2.120;2022-08-06T12:20:04;1.08;;;0.50;;
22549;SDS011;11441;57.164;-2.120;2022-08-06T12:22:33;0.82;;;0.40;;
22549;SDS011;11441;57.164;-2.120;2022-08-06T12:25:10;2.20;;;0.65;;
22549;SDS011;11441;57.164;-2.120;2022-08-06T12:27:40;1.02;;;0.77;;
22549;SDS011;11441;57.164;-2.120;2022-08-06T12:30:19;1.65;;;0.88;;
22549;SDS011;11441;57.164;-2.120;2022-08-06T12:33:04;1.10;;;0.90;;
22549;SDS011;11441;57.164;-2.120;2022-08-06T12:38:23;5.10;;;0.60;;
22549;SDS011;11441;57.164;-2.120;2022-08-06T12:43:37;0.63;;;0.63;;
22549;SDS011;11441;57.164;-2.120;2022-08-06T12:46:23;1.67;;;0.60;;
22549;SDS011;11441;57.164;-2.120;2022-08-06T12:48:55;1.48;;;0.57;;
22549;SDS011;11441;57.164;-2.120;2022-08-06T12:51:22;2.72;;;0.68;;
22549;SDS011;11441;57.164;-2.120;2022-08-06T12:53:54;1.73;;;0.55;;
22549;SDS011;11441;57.164;-2.120;2022-08-06T12:56:25;2.28;;;0.52;;
22549;SDS011;11441;57.164;-2.120;2022-08-06T12:58:58;0.60;;;0.60;;
22549;SDS011;11441;57.164;-2.120;2022-08-06T13:01:29;0.65;;;0.60;;
22549;SDS011;11441;57.164;-2.120;2022-08-06T13:04:18;0.43;;;0.40;;
22549;SDS011;11441;57.164;-2.120;2022-08-06T13:09:38;0.47;;;0.35;;
22549;SDS011;11441;57.164;-2.120;2022-08-06T13:19:08;0.40;;;0.40;;
22549;SDS011;11441;57.164;-2.120;2022-08-06T13:21:45;0.45;;;0.35;;
22549;SDS011;11441;57.164;-2.120;2022-08-06T13:24:25;0.40;;;0.38;;
22549;SDS011;11441;57.164;-2.120;2022-08-06T13:26:56;0.82;;;0.40;;
22549;SDS011;11441;57.164;-2.120;2022-08-06T13:29:28;0.90;;;0.30;;
22549;SDS011;11441;57.164;-2.120;2022-08-06T13:32:15;3.47;;;0.50;;
22549;SDS011;11441;57.164;-2.120;2022-08-06T13:34:58;1.15;;;0.50;;
22549;SDS011;11441;57.164;-2.120;2022-08-06T13:37:46;1.73;;;0.80;;
22549;SDS011;11441;57.164;-2.120;2022-08-06T13:40:49;2.55;;;0.50;;
22549;SDS011;11441;57.164;-2.120;2022-08-06T13:43:48;1.10;;;0.50;;
22549;SDS011;11441;57.164;-2.120;2022-08-06T13:46:25;2.55;;;0.55;;
22549;SDS011;11441;57.164;-2.120;2022-08-06T13:48:59;1.13;;;0.50;;
22549;SDS011;11441;57.164;-2.120;2022-08-06T13:51:37;0.88;;;0.40;;
22549;SDS011;11441;57.164;-2.120;2022-08-06T13:54:18;2.88;;;1.10;;
22549;SDS011;11441;57.164;-2.120;2022-08-06T13:56:46;3.30;;;0.55;;
22549;SDS011;11441;57.164;-2.120;2022-08-06T13:59:18;1.88;;;0.68;;
22549;SDS011;11441;57.164;-2.120;2022-08-06T14:04:50;0.98;;;0.60;;
22549;SDS011;11441;57.164;-2.120;2022-08-06T14:07:17;1.60;;;0.60;;
22549;SDS011;11441;57.164;-2.120;2022-08-06T14:09:46;2.00;;;0.70;;
22549;SDS011;11441;57.164;-2.120;2022-08-06T14:12:32;2.38;;;0.70;;
22549;SDS011;11441;57.164;-2.120;2022-08-06T14:15:00;2.30;;;0.80;;
22549;SDS011;11441;57.164;-2.120;2022-08-06T14:17:26;3.13;;;0.65;;
22549;SDS011;11441;57.164;-2.120;2022-08-06T14:20:00;1.25;;;0.80;;
22549;SDS011;11441;57.164;-2.120;2022-08-06T14:22:45;2.45;;;0.70;;
22549;SDS011;11441;57.164;-2.120;2022-08-06T14:25:15;2.13;;;0.68;;
22549;SDS011;11441;57.164;-2.120;2022-08-06T14:27:42;1.90;;;0.80;;
22549;SDS011;11441;57.164;-2.120;2022-08-06T14:30:11;2.25;;;0.80;;
22549;SDS011;11441;57.164;-2.120;2022-08-06T14:32:58;1.55;;;0.60;;
22549;SDS011;11441;57.164;-2.120;2022-08-06T14:35:44;3.30;;;0.60;;
22549;SDS011;11441;57.164;-2.120;2022-08-06T14:38:36;4.40;;;0.70;;
22549;SDS011;11441;57.164;-2.120;2022-08-06T14:41:07;2.88;;;0.77;;
22549;SDS011;11441;57.164;-2.120;2022-08-06T14:44:13;6.47;;;0.50;;
22549;SDS011;11441;57.164;-2.120;2022-08-06T14:46:59;1.58;;;0.65;;
22549;SDS011;11441;57.164;-2.120;2022-08-06T14:49:28;2.28;;;0.40;;
22549;SDS011;11441;57.164;-2.120;2022-08-06T14:52:15;3.97;;;0.77;;
22549;SDS011;11441;57.164;-2.120;2022-08-06T14:54:49;2.15;;;1.08;;
22549;SDS011;11441;57.164;-2.120;2022-08-06T14:57:32;4.88;;;0.88;;
22549;SDS011;11441;57.164;-2.120;2022-08-06T15:00:19;1.45;;;0.55;;
22549;SDS011;11441;57.164;-2.120;2022-08-06T15:03:00;2.65;;;0.47;;
22549;SDS011;11441;57.164;-2.120;2022-08-06T15:05:28;3.97;;;0.80;;
22549;SDS011;11441;57.164;-2.120;2022-08-06T15:08:14;5.82;;;0.73;;
22549;SDS011;11441;57.164;-2.120;2022-08-06T15:10:41;2.10;;;0.75;;
22549;SDS011;11441;57.164;-2.120;2022-08-06T15:13:09;2.67;;;1.13;;
22549;SDS011;11441;57.164;-2.120;2022-08-06T15:15:36;2.38;;;0.80;;
22549;SDS011;11441;57.164;-2.120;2022-08-06T15:18:14;1.52;;;0.55;;
22549;SDS011;11441;57.164;-2.120;2022-08-06T15:21:02;5.72;;;1.17;;
22549;SDS011;11441;57.164;-2.120;2022-08-06T15:23:30;4.00;;;1.10;;
22549;SDS011;11441;57.164;-2.120;2022-08-06T15:26:17;4.03;;;0.63;;
22549;SDS011;11441;57.164;-2.120;2022-08-06T15:29:14;2.40;;;0.60;;
22549;SDS011;11441;57.164;-2.120;2022-08-06T15:31:42;3.78;;;0.75;;
22549;SDS011;11441;57.164;-2.120;2022-08-06T15:34:11;2.67;;;0.80;;
22549;SDS011;11441;57.164;-2.120;2022-08-06T15:36:46;3.05;;;0.65;;
22549;SDS011;11441;57.164;-2.120;2022-08-06T15:39:28;4.07;;;1.00;;
22549;SDS011;11441;57.164;-2.120;2022-08-06T15:42:19;4.53;;;0.80;;
22549;SDS011;11441;57.164;-2.120;2022-08-06T15:44:49;1.27;;;0.93;;
22549;SDS011;11441;57.164;-2.120;2022-08-06T15:47:20;3.75;;;0.90;;
22549;SDS011;11441;57.164;-2.120;2022-08-06T15:50:06;2.40;;;0.90;;
22549;SDS011;11441;57.164;-2.120;2022-08-06T15:52:34;2.08;;;0.80;;
22549;SDS011;11441;57.164;-2.120;2022-08-06T15:55:19;5.22;;;1.00;;
22549;SDS011;11441;57.164;-2.120;2022-08-06T15:57:47;3.83;;;0.98;;
22549;SDS011;11441;57.164;-2.120;2022-08-06T16:00:33;4.38;;;0.85;;
22549;SDS011;11441;57.164;-2.120;2022-08-06T16:03:33;1.58;;;0.70;;
22549;SDS011;11441;57.164;-2.120;2022-08-06T16:06:20;3.03;;;0.95;;
22549;SDS011;11441;57.164;-2.120;2022-08-06T16:08:51;3.95;;;0.82;;
22549;SDS011;11441;57.164;-2.120;2022-08-06T16:14:18;3.42;;;0.82;;
22549;SDS011;11441;57.164;-2.120;2022-08-06T16:16:59;3.17;;;0.82;;
22549;SDS011;11441;57.164;-2.120;2022-08-06T16:19:26;3.45;;;1.13;;
22549;SDS011;11441;57.164;-2.120;2022-08-06T16:21:59;2.63;;;1.10;;
22549;SDS011;11441;57.164;-2.120;2022-08-06T16:24:28;7.93;;;1.27;;
22549;SDS011;11441;57.164;-2.120;2022-08-06T16:26:56;2.92;;;1.23;;
22549;SDS011;11441;57.164;-2.120;2022-08-06T16:29:23;1.23;;;0.50;;
22549;SDS011;11441;57.164;-2.120;2022-08-06T16:31:52;4.30;;;0.77;;
22549;SDS011;11441;57.164;-2.120;2022-08-06T16:34:20;4.65;;;1.08;;
22549;SDS011;11441;57.164;-2.120;2022-08-06T16:36:56;1.40;;;1.02;;
22549;SDS011;11441;57.164;-2.120;2022-08-06T16:39:46;3.45;;;1.17;;
22549;SDS011;11441;57.164;-2.120;2022-08-06T16:42:26;1.73;;;0.82;;
22549;SDS011;11441;57.164;-2.120;2022-08-06T16:44:55;2.08;;;0.85;;
22549;SDS011;11441;57.164;-2.120;2022-08-06T16:47:35;3.22;;;1.27;;
22549;SDS011;11441;57.164;-2.120;2022-08-06T16:53:10;1.83;;;0.65;;
22549;SDS011;11441;57.164;-2.120;2022-08-06T16:55:57;2.67;;;0.90;;
22549;SDS011;11441;57.164;-2.120;2022-08-06T16:58:25;5.50;;;1.20;;
22549;SDS011;11441;57.164;-2.120;2022-08-06T17:01:01;1.55;;;1.00;;
22549;SDS011;11441;57.164;-2.120;2022-08-06T17:04:11;4.57;;;0.90;;
22549;SDS011;11441;57.164;-2.120;2022-08-06T17:06:51;3.45;;;0.80;;
22549;SDS011;11441;57.164;-2.120;2022-08-06T17:09:18;3.25;;;0.82;;
22549;SDS011;11441;57.164;-2.120;2022-08-06T17:11:47;4.93;;;1.40;;
22549;SDS011;11441;57.164;-2.120;2022-08-06T17:14:34;5.15;;;1.00;;
22549;SDS011;11441;57.164;-2.120;2022-08-06T17:17:01;4.53;;;1.27;;
22549;SDS011;11441;57.164;-2.120;2022-08-06T17:19:32;4.03;;;0.98;;